createdAt,value
2022-11-14T00:00:29.864Z,87.67
2022-11-14T00:03:16.320Z,88.30
2022-11-14T00:06:06.131Z,89.78
2022-11-14T00:08:52.575Z,90.17
2022-11-14T00:11:38.990Z,90.43
2022-11-14T00:14:25.327Z,90.32
2022-11-14T00:17:11.689Z,90.38
2022-11-14T00:19:58.251Z,89.73
2022-11-14T00:22:45.907Z,89.93
2022-11-14T00:25:33.183Z,90.13
2022-11-14T00:28:19.606Z,89.62
2022-11-14T00:31:06.235Z,90.21
2022-11-14T00:33:53.143Z,89.77
2022-11-14T00:36:39.580Z,90.03
2022-11-14T00:39:27.290Z,90.30
2022-11-14T00:42:13.645Z,89.96
2022-11-14T00:45:00.132Z,89.74
2022-11-14T00:47:46.445Z,89.56
2022-11-14T00:50:32.972Z,89.74
2022-11-14T00:53:19.540Z,89.81
2022-11-14T00:56:07.876Z,89.71
2022-11-14T00:58:54.075Z,89.81
2022-11-14T01:01:40.602Z,89.54
2022-11-14T01:04:26.912Z,88.84
2022-11-14T01:07:13.130Z,89.32
2022-11-14T01:09:59.713Z,89.74
2022-11-14T01:12:47.915Z,89.98
2022-11-14T01:15:34.569Z,90.20
2022-11-14T01:18:22.721Z,90.30
2022-11-14T01:21:11.276Z,90.48
2022-11-14T01:23:57.646Z,90.88
2022-11-14T01:26:44.088Z,90.98
2022-11-14T01:29:31.966Z,91.08
2022-11-14T01:32:18.361Z,91.05
2022-11-14T01:35:04.885Z,90.69
2022-11-14T01:37:51.114Z,90.18
2022-11-14T01:40:42.660Z,89.99
2022-11-14T01:43:32.408Z,89.87
2022-11-14T01:46:23.453Z,89.50
2022-11-14T01:49:16.415Z,89.42
2022-11-14T01:52:07.165Z,89.83
2022-11-14T01:54:56.225Z,90.26
2022-11-14T01:57:47.772Z,90.28
2022-11-14T02:00:34.274Z,90.61
2022-11-14T02:03:22.320Z,90.07
2022-11-14T02:06:10.711Z,90.12
2022-11-14T02:08:58.694Z,90.40
2022-11-14T02:11:46.808Z,90.07
2022-11-14T02:14:34.129Z,90.99
2022-11-14T02:17:30.140Z,91.50
2022-11-14T02:20:23.317Z,91.84
2022-11-14T02:23:11.692Z,92.45
2022-11-14T02:25:58.629Z,92.86
2022-11-14T02:28:44.741Z,93.15
2022-11-14T02:31:31.355Z,93.11
2022-11-14T02:34:20.010Z,93.20
2022-11-14T02:37:08.502Z,93.04
2022-11-14T02:39:54.920Z,93.36
2022-11-14T02:42:41.741Z,93.51
2022-11-14T02:45:28.453Z,93.83
2022-11-14T02:48:15.120Z,93.85
2022-11-14T02:51:01.824Z,93.85
2022-11-14T02:53:49.505Z,94.26
2022-11-14T02:56:35.896Z,93.95
2022-11-14T02:59:22.419Z,93.66
2022-11-14T03:02:09.003Z,94.63
2022-11-14T03:04:55.493Z,93.93
2022-11-14T03:07:42.010Z,94.22
2022-11-14T03:10:29.727Z,94.42
2022-11-14T03:13:15.898Z,94.28
2022-11-14T03:16:07.563Z,96.24
2022-11-14T03:18:54.308Z,95.94
2022-11-14T03:21:40.643Z,96.45
2022-11-14T03:24:27.060Z,97.25
2022-11-14T03:27:14.884Z,96.95
2022-11-14T03:30:01.299Z,96.76
2022-11-14T03:32:47.685Z,96.78
2022-11-14T03:35:34.577Z,96.84
2022-11-14T03:38:22.977Z,97.00
2022-11-14T03:41:09.099Z,96.37
2022-11-14T03:43:57.356Z,96.38
2022-11-14T03:46:44.196Z,97.07
2022-11-14T03:49:30.322Z,97.92
2022-11-14T03:52:16.748Z,97.84
2022-11-14T03:55:03.568Z,97.63
2022-11-14T03:57:50.022Z,96.83
2022-11-14T04:00:37.796Z,96.58
2022-11-14T04:03:24.594Z,95.64
2022-11-14T04:06:10.926Z,95.71
2022-11-14T04:08:57.600Z,95.48
2022-11-14T04:11:43.821Z,95.15
2022-11-14T04:14:30.105Z,94.82
2022-11-14T04:17:18.010Z,94.60
2022-11-14T04:20:04.833Z,94.02
2022-11-14T04:22:51.045Z,94.61
2022-11-14T04:25:37.453Z,94.92
2022-11-14T04:28:23.789Z,94.56
2022-11-14T04:31:10.092Z,94.22
2022-11-14T04:33:57.951Z,94.14
2022-11-14T04:36:44.511Z,93.91
2022-11-14T04:39:30.827Z,94.48
2022-11-14T04:42:17.466Z,94.66
2022-11-14T04:45:04.244Z,95.65
2022-11-14T04:47:50.335Z,95.67
2022-11-14T04:50:38.215Z,95.44
2022-11-14T04:53:24.840Z,95.13
2022-11-14T04:56:11.204Z,95.30
2022-11-14T04:58:57.751Z,94.73
2022-11-14T05:01:44.450Z,94.79
2022-11-14T05:04:31.058Z,94.40
2022-11-14T05:07:18.745Z,94.61
2022-11-14T05:10:06.300Z,94.34
2022-11-14T05:12:54.716Z,94.76
2022-11-14T05:15:40.752Z,95.28
2022-11-14T05:18:27.840Z,95.12
2022-11-14T05:21:15.830Z,95.63
2022-11-14T05:24:03.625Z,96.05
2022-11-14T05:26:50.139Z,96.48
2022-11-14T05:29:36.528Z,95.42
2022-11-14T05:32:23.143Z,96.32
2022-11-14T05:35:10.067Z,96.31
2022-11-14T05:37:59.979Z,96.34
2022-11-14T05:40:47.611Z,97.20
2022-11-14T05:43:33.989Z,96.76
2022-11-14T05:46:20.163Z,97.34
2022-11-14T05:49:06.742Z,97.51
2022-11-14T05:51:53.379Z,97.80
2022-11-14T05:54:39.717Z,98.32
2022-11-14T05:57:27.635Z,97.72
2022-11-14T06:00:15.033Z,97.82
2022-11-14T06:03:01.543Z,98.35
2022-11-14T06:05:47.986Z,97.43
2022-11-14T06:08:34.611Z,97.56
2022-11-14T06:11:22.934Z,97.41
2022-11-14T06:14:11.250Z,97.39
2022-11-14T06:16:57.760Z,98.01
2022-11-14T06:19:44.054Z,98.88
2022-11-14T06:22:30.637Z,99.40
2022-11-14T06:25:16.990Z,99.02
2022-11-14T06:28:03.379Z,99.28
2022-11-14T06:30:51.257Z,99.40
2022-11-14T06:33:38.585Z,99.10
2022-11-14T06:36:25.159Z,98.77
2022-11-14T06:39:11.286Z,99.00
2022-11-14T06:41:57.875Z,98.91
2022-11-14T06:44:44.242Z,99.27
2022-11-14T06:47:32.084Z,98.74
2022-11-14T06:50:18.799Z,98.60
2022-11-14T06:53:04.901Z,99.20
2022-11-14T06:55:56.710Z,98.97
2022-11-14T06:58:45.202Z,99.18
2022-11-14T07:01:31.410Z,99.04
2022-11-14T07:04:19.081Z,98.74
2022-11-14T07:07:05.296Z,98.64
2022-11-14T07:09:51.687Z,98.54
2022-11-14T07:12:37.932Z,98.29
2022-11-14T07:15:24.456Z,98.17
2022-11-14T07:18:10.918Z,97.80
2022-11-14T07:21:03.683Z,97.94
2022-11-14T07:23:50.011Z,96.74
2022-11-14T07:26:36.484Z,96.43
2022-11-14T07:29:22.947Z,96.36
2022-11-14T07:32:09.396Z,96.33
2022-11-14T07:35:01.776Z,96.23
2022-11-14T07:37:50.797Z,95.87
2022-11-14T07:40:38.074Z,95.85
2022-11-14T07:43:25.019Z,96.05
2022-11-14T07:46:13.110Z,96.11
2022-11-14T07:48:59.731Z,95.41
2022-11-14T07:51:46.258Z,96.32
2022-11-14T07:54:33.933Z,96.27
2022-11-14T07:57:20.401Z,96.54
2022-11-14T08:00:08.094Z,96.66
2022-11-14T08:02:54.539Z,96.40
2022-11-14T08:05:41.016Z,96.70
2022-11-14T08:08:27.822Z,97.18
2022-11-14T08:11:31.664Z,96.80
2022-11-14T08:14:21.364Z,96.61
2022-11-14T08:17:07.939Z,97.27
2022-11-14T08:19:54.408Z,97.11
2022-11-14T08:22:40.622Z,97.51
2022-11-14T08:25:27.161Z,97.01
2022-11-14T08:28:14.848Z,97.11
2022-11-14T08:31:02.168Z,97.45
2022-11-14T08:33:50.229Z,98.24
2022-11-14T08:36:36.785Z,98.08
2022-11-14T08:39:23.284Z,98.22
2022-11-14T08:42:09.707Z,97.59
2022-11-14T08:44:57.533Z,96.93
2022-11-14T08:47:44.047Z,97.08
2022-11-14T08:50:30.367Z,96.75
2022-11-14T08:53:16.530Z,98.20
2022-11-14T08:56:03.057Z,98.01
2022-11-14T08:58:49.409Z,99.01
2022-11-14T09:01:37.031Z,98.67
2022-11-14T09:04:23.206Z,99.14
2022-11-14T09:07:09.710Z,98.99
2022-11-14T09:09:56.188Z,98.57
2022-11-14T09:12:42.722Z,99.47
2022-11-14T09:15:29.784Z,99.67
2022-11-14T09:18:17.736Z,99.12
2022-11-14T09:21:06.709Z,99.45
2022-11-14T09:23:57.438Z,100.00
2022-11-14T09:26:54.995Z,100.00
2022-11-14T09:29:43.046Z,100.00
2022-11-14T09:32:29.483Z,100.00
2022-11-14T09:35:17.965Z,100.00
2022-11-14T09:38:05.712Z,100.00
2022-11-14T09:41:04.153Z,100.00
2022-11-14T09:44:22.236Z,100.00
2022-11-14T09:47:15.531Z,100.00
2022-11-14T09:50:09.083Z,100.00
2022-11-14T09:52:59.092Z,100.00
2022-11-14T09:55:45.223Z,100.00
2022-11-14T09:58:32.316Z,100.00
2022-11-14T10:01:29.343Z,100.00
2022-11-14T10:04:25.034Z,100.00
2022-11-14T10:07:26.904Z,100.00
2022-11-14T10:10:35.796Z,99.94
2022-11-14T10:13:45.022Z,99.05
2022-11-14T10:16:40.503Z,98.17
2022-11-14T10:19:40.025Z,97.91
2022-11-14T10:22:44.313Z,98.35
2022-11-14T10:25:44.197Z,96.57
2022-11-14T10:28:42.508Z,95.87
2022-11-14T10:31:45.077Z,96.20
2022-11-14T10:34:35.943Z,95.84
2022-11-14T10:37:28.649Z,94.64
2022-11-14T10:40:20.798Z,95.47
2022-11-14T10:43:21.949Z,94.18
2022-11-14T10:46:14.361Z,94.52
2022-11-14T10:49:01.212Z,94.12
2022-11-14T10:51:50.976Z,94.17
2022-11-14T10:54:43.400Z,92.90
2022-11-14T10:57:31.060Z,93.35
2022-11-14T11:00:22.943Z,92.59
2022-11-14T11:03:09.442Z,93.36
2022-11-14T11:05:57.551Z,92.85
2022-11-14T11:09:01.476Z,92.71
2022-11-14T11:11:57.663Z,92.95
2022-11-14T11:14:44.443Z,93.01
2022-11-14T11:17:38.460Z,93.84
2022-11-14T11:20:33.167Z,92.55
2022-11-14T11:23:22.911Z,92.86
2022-11-14T11:26:18.820Z,92.99
2022-11-14T11:29:15.443Z,93.09
2022-11-14T11:32:02.287Z,93.07
2022-11-14T11:34:50.536Z,93.28
2022-11-14T11:37:40.919Z,92.68
2022-11-14T11:40:29.689Z,92.85
2022-11-14T11:43:38.486Z,92.98
2022-11-14T11:46:32.026Z,92.82
2022-11-14T11:49:24.581Z,92.55
2022-11-14T11:52:17.020Z,92.19
2022-11-14T11:55:14.366Z,91.87
2022-11-14T11:58:06.312Z,91.56
2022-11-14T12:00:55.473Z,91.02
2022-11-14T12:03:43.824Z,91.21
2022-11-14T12:06:34.734Z,91.33
2022-11-14T12:09:42.524Z,91.50
2022-11-14T12:12:50.940Z,91.38
2022-11-14T12:15:46.054Z,91.21
2022-11-14T12:18:49.981Z,90.80
2022-11-14T12:21:58.635Z,91.03
2022-11-14T12:25:18.790Z,91.18
2022-11-14T12:28:25.496Z,90.26
2022-11-14T12:31:14.665Z,90.56
2022-11-14T12:34:05.421Z,90.84
2022-11-14T12:36:52.415Z,91.06
2022-11-14T12:39:38.964Z,90.17
2022-11-14T12:42:26.959Z,90.59
2022-11-14T12:45:46.889Z,90.27
2022-11-14T12:48:36.671Z,89.89
2022-11-14T12:51:51.592Z,89.92
2022-11-14T12:54:45.532Z,90.17
2022-11-14T12:57:50.453Z,90.54
2022-11-14T13:00:42.098Z,90.52
2022-11-14T13:03:42.019Z,90.58
2022-11-14T13:06:43.635Z,90.09
2022-11-14T13:09:42.905Z,90.28
2022-11-14T13:12:51.231Z,90.69
2022-11-14T13:16:07.433Z,90.95
2022-11-14T13:19:14.735Z,90.91
2022-11-14T13:22:36.120Z,91.10
2022-11-14T13:25:24.067Z,91.01
2022-11-14T13:28:44.020Z,91.05
2022-11-14T13:31:47.763Z,91.68
2022-11-14T13:34:40.336Z,91.86
2022-11-14T13:37:43.879Z,91.30
2022-11-14T13:40:36.357Z,91.45
2022-11-14T13:43:32.109Z,91.34
2022-11-14T13:46:33.885Z,91.32
2022-11-14T13:49:33.925Z,92.28
2022-11-14T13:52:20.425Z,92.06
2022-11-14T13:55:08.128Z,91.89
2022-11-14T13:58:09.810Z,91.69
2022-11-14T14:01:09.852Z,91.95
2022-11-14T14:04:10.332Z,91.90
2022-11-14T14:07:09.846Z,92.10
2022-11-14T14:10:04.407Z,91.90
2022-11-14T14:13:07.916Z,92.26
2022-11-14T14:16:03.730Z,91.94
2022-11-14T14:18:59.406Z,92.15
2022-11-14T14:21:51.351Z,91.74
2022-11-14T14:24:53.451Z,91.82
2022-11-14T14:27:54.348Z,91.85
2022-11-14T14:30:40.966Z,92.29
2022-11-14T14:33:27.559Z,92.08
2022-11-14T14:36:25.440Z,91.80
2022-11-14T14:39:18.372Z,91.72
2022-11-14T14:42:12.206Z,91.41
2022-11-14T14:44:59.583Z,91.84
2022-11-14T14:47:49.493Z,92.71
2022-11-14T14:50:40.031Z,92.59
2022-11-14T14:53:29.816Z,93.61
2022-11-14T14:56:20.636Z,93.82
2022-11-14T14:59:24.115Z,94.02
2022-11-14T15:02:16.845Z,93.29
2022-11-14T15:05:04.413Z,93.76
2022-11-14T15:07:52.608Z,93.48
2022-11-14T15:10:39.106Z,93.42
2022-11-14T15:13:27.392Z,93.33
2022-11-14T15:16:15.633Z,93.51
2022-11-14T15:19:02.006Z,93.54
2022-11-14T15:22:03.159Z,93.06
2022-11-14T15:25:08.203Z,93.19
2022-11-14T15:27:56.141Z,93.19
2022-11-14T15:30:42.943Z,93.39
2022-11-14T15:33:32.825Z,93.13
2022-11-14T15:36:19.107Z,93.29
2022-11-14T15:39:21.480Z,93.53
2022-11-14T15:42:13.916Z,93.53
2022-11-14T15:45:00.267Z,93.92
2022-11-14T15:47:46.744Z,93.89
2022-11-14T15:50:36.153Z,94.48
2022-11-14T15:53:25.574Z,94.56
2022-11-14T15:56:13.831Z,94.74
2022-11-14T15:59:00.240Z,94.98
2022-11-14T16:01:48.568Z,94.88
2022-11-14T16:04:38.944Z,95.03
2022-11-14T16:07:29.187Z,95.12
2022-11-14T16:10:19.038Z,95.31
2022-11-14T16:13:06.041Z,95.41
2022-11-14T16:15:52.367Z,95.86
2022-11-14T16:18:38.781Z,96.03
2022-11-14T16:21:25.163Z,96.07
2022-11-14T16:24:18.231Z,96.15
2022-11-14T16:27:05.442Z,96.21
2022-11-14T16:29:51.630Z,96.52
2022-11-14T16:32:38.133Z,96.91
2022-11-14T16:35:26.092Z,96.26
2022-11-14T16:38:14.033Z,96.86
2022-11-14T16:41:01.400Z,97.13
2022-11-14T16:43:48.129Z,97.13
2022-11-14T16:46:34.377Z,97.40
2022-11-14T16:49:20.810Z,97.82
2022-11-14T16:52:08.658Z,98.07
2022-11-14T16:54:55.251Z,97.73
2022-11-14T16:57:43.028Z,97.97
2022-11-14T17:00:29.659Z,98.12
2022-11-14T17:03:16.239Z,98.45
2022-11-14T17:06:02.767Z,98.23
2022-11-14T17:08:49.329Z,98.34
2022-11-14T17:11:36.221Z,98.12
2022-11-14T17:14:23.624Z,98.07
2022-11-14T17:17:10.206Z,97.85
2022-11-14T17:19:56.537Z,97.75
2022-11-14T17:22:43.006Z,97.83
2022-11-14T17:25:31.090Z,98.17
2022-11-14T17:28:17.367Z,97.82
2022-11-14T17:31:09.032Z,97.79
2022-11-14T17:33:56.880Z,97.63
2022-11-14T17:36:43.099Z,97.77
2022-11-14T17:39:29.753Z,97.26
2022-11-14T17:42:15.843Z,97.47
2022-11-14T17:45:02.372Z,96.84
2022-11-14T17:47:50.312Z,96.90
2022-11-14T17:50:39.632Z,96.46
2022-11-14T17:53:26.033Z,95.65
2022-11-14T17:56:15.004Z,96.04
2022-11-14T17:59:01.575Z,95.39
2022-11-14T18:01:48.138Z,95.37
2022-11-14T18:04:35.968Z,95.15
2022-11-14T18:07:22.512Z,94.50
2022-11-14T18:10:09.868Z,94.46
2022-11-14T18:12:56.039Z,94.25
2022-11-14T18:15:42.690Z,94.20
2022-11-14T18:18:31.720Z,93.76
2022-11-14T18:21:21.366Z,93.41
2022-11-14T18:24:13.099Z,93.58
2022-11-14T18:27:00.008Z,93.17
2022-11-14T18:29:46.517Z,93.64
2022-11-14T18:32:33.004Z,93.65
2022-11-14T18:35:19.347Z,93.52
2022-11-14T18:38:07.345Z,93.73
2022-11-14T18:40:57.320Z,93.88
2022-11-14T18:43:45.867Z,94.09
2022-11-14T18:46:37.130Z,94.39
2022-11-14T18:49:25.088Z,93.98
2022-11-14T18:52:16.897Z,94.22
2022-11-14T18:55:07.817Z,94.39
2022-11-14T18:57:54.444Z,94.76
2022-11-14T19:00:40.961Z,94.64
2022-11-14T19:03:28.739Z,94.46
2022-11-14T19:06:15.381Z,95.35
2022-11-14T19:09:09.752Z,95.34
2022-11-14T19:12:16.374Z,95.39
2022-11-14T19:15:02.947Z,95.08
2022-11-14T19:17:49.342Z,94.56
2022-11-14T19:20:35.469Z,94.68
2022-11-14T19:23:21.915Z,94.40
2022-11-14T19:26:08.387Z,94.48
2022-11-14T19:28:57.451Z,94.86
2022-11-14T19:31:44.391Z,94.93
2022-11-14T19:34:30.644Z,95.14
2022-11-14T19:37:17.083Z,95.17
2022-11-14T19:40:03.768Z,95.45
2022-11-14T19:42:53.928Z,94.81
2022-11-14T19:45:41.609Z,94.69
2022-11-14T19:48:28.075Z,94.38
2022-11-14T19:51:16.857Z,94.17
2022-11-14T19:54:03.273Z,94.53
2022-11-14T19:56:49.574Z,94.69
2022-11-14T19:59:35.782Z,94.68
2022-11-14T20:02:23.625Z,94.46
2022-11-14T20:05:10.752Z,94.55
2022-11-14T20:07:57.190Z,94.44
2022-11-14T20:10:48.388Z,94.28
2022-11-14T20:13:36.949Z,94.56
2022-11-14T20:16:24.904Z,94.51
2022-11-14T20:19:13.593Z,94.39
2022-11-14T20:22:00.063Z,94.36
2022-11-14T20:24:46.638Z,94.16
2022-11-14T20:27:33.150Z,94.40
2022-11-14T20:30:20.011Z,95.00
2022-11-14T20:33:06.245Z,94.40
2022-11-14T20:35:54.265Z,94.59
2022-11-14T20:38:40.855Z,94.74
2022-11-14T20:41:27.118Z,94.88
2022-11-14T20:44:13.771Z,95.14
2022-11-14T20:47:00.365Z,95.49
2022-11-14T20:49:47.482Z,95.80
2022-11-14T20:52:35.744Z,96.35
2022-11-14T20:55:22.424Z,96.63
2022-11-14T20:58:08.896Z,96.29
2022-11-14T21:00:55.585Z,96.74
2022-11-14T21:03:42.704Z,96.57
2022-11-14T21:06:29.047Z,96.99
2022-11-14T21:09:17.413Z,96.95
2022-11-14T21:12:04.145Z,97.47
2022-11-14T21:14:50.587Z,97.53
2022-11-14T21:17:38.199Z,98.08
2022-11-14T21:20:24.791Z,98.48
2022-11-14T21:23:11.274Z,98.88
2022-11-14T21:26:07.209Z,99.17
2022-11-14T21:28:55.263Z,99.74
2022-11-14T21:31:43.615Z,99.81
2022-11-14T21:34:29.836Z,100.00
2022-11-14T21:37:16.129Z,100.00
2022-11-14T21:40:02.499Z,100.00
2022-11-14T21:42:50.327Z,100.00
2022-11-14T21:45:36.750Z,100.00
2022-11-14T21:48:23.625Z,100.00
2022-11-14T21:51:12.984Z,100.00
2022-11-14T21:53:59.917Z,100.00
2022-11-14T21:56:46.224Z,100.00
2022-11-14T21:59:33.912Z,100.00
2022-11-14T22:02:38.096Z,100.00
2022-11-14T22:05:24.879Z,100.00
2022-11-14T22:08:11.146Z,100.00
2022-11-14T22:11:03.485Z,100.00
2022-11-14T22:13:50.253Z,100.00
2022-11-14T22:16:38.159Z,100.00
2022-11-14T22:19:24.652Z,100.00
2022-11-14T22:22:10.814Z,100.00
2022-11-14T22:24:57.221Z,100.00
2022-11-14T22:27:43.623Z,100.00
2022-11-14T22:30:30.127Z,100.00
2022-11-14T22:33:18.002Z,100.00
2022-11-14T22:36:06.626Z,100.00
2022-11-14T22:38:54.219Z,100.00
2022-11-14T22:41:40.648Z,100.00
2022-11-14T22:44:27.157Z,100.00
2022-11-14T22:47:13.462Z,100.00
2022-11-14T22:50:01.286Z,100.00
2022-11-14T22:52:47.910Z,100.00
2022-11-14T22:55:34.391Z,100.00
2022-11-14T22:58:20.496Z,100.00
2022-11-14T23:01:12.675Z,100.00
2022-11-14T23:04:01.229Z,100.00
2022-11-14T23:06:48.760Z,100.00
2022-11-14T23:09:35.021Z,100.00
2022-11-14T23:12:21.594Z,100.00
2022-11-14T23:15:08.639Z,100.00
2022-11-14T23:17:54.916Z,100.00
2022-11-14T23:20:41.471Z,100.00
2022-11-14T23:23:29.729Z,100.00
2022-11-14T23:26:19.046Z,100.00
2022-11-14T23:29:05.655Z,100.00
2022-11-14T23:31:52.039Z,100.00
2022-11-14T23:34:38.359Z,100.00
2022-11-14T23:37:24.411Z,100.00
2022-11-14T23:40:13.043Z,100.00
2022-11-14T23:42:59.183Z,100.00
2022-11-14T23:45:45.623Z,100.00
2022-11-14T23:48:32.217Z,100.00
2022-11-14T23:51:18.497Z,100.00
2022-11-14T23:54:05.018Z,100.00
2022-11-14T23:56:52.564Z,100.00
2022-11-14T23:59:38.871Z,100.00
